createdAt,value
2023-04-12T00:02:14.298Z,7.64
2023-04-12T00:06:17.332Z,7.67
2023-04-12T00:10:21.314Z,7.76
2023-04-12T00:14:23.879Z,7.80
2023-04-12T00:18:27.317Z,7.89
2023-04-12T00:22:29.948Z,8.08
2023-04-12T00:26:31.939Z,8.41
2023-04-12T00:30:34.376Z,8.57
2023-04-12T00:34:36.434Z,8.62
2023-04-12T00:38:38.434Z,8.53
2023-04-12T00:42:40.470Z,8.50
2023-04-12T00:46:42.625Z,8.32
2023-04-12T00:50:45.056Z,8.42
2023-04-12T00:54:47.308Z,8.36
2023-04-12T00:58:49.629Z,8.27
2023-04-12T01:02:53.141Z,8.40
2023-04-12T01:07:24.561Z,8.47
2023-04-12T01:11:33.360Z,8.46
2023-04-12T01:15:44.495Z,8.40
2023-04-12T01:20:14.357Z,8.48
2023-04-12T01:24:37.781Z,8.47
2023-04-12T01:28:43.634Z,8.43
2023-04-12T01:32:57.719Z,8.33
2023-04-12T01:37:02.451Z,8.37
2023-04-12T01:41:05.726Z,8.37
2023-04-12T01:45:08.322Z,8.48
2023-04-12T01:49:12.942Z,8.33
2023-04-12T01:53:25.548Z,8.37
2023-04-12T01:57:28.120Z,8.36
2023-04-12T02:01:31.074Z,8.56
2023-04-12T02:05:34.111Z,8.53
2023-04-12T02:09:38.052Z,8.51
2023-04-12T02:13:40.470Z,8.39
2023-04-12T02:17:42.466Z,8.36
2023-04-12T02:21:45.735Z,8.43
2023-04-12T02:25:48.428Z,8.54
2023-04-12T02:29:51.950Z,8.50
2023-04-12T02:33:54.245Z,8.49
2023-04-12T02:37:56.487Z,8.52
2023-04-12T02:42:02.623Z,8.61
2023-04-12T02:46:05.395Z,8.55
2023-04-12T02:50:14.735Z,8.50
2023-04-12T02:54:27.035Z,8.54
2023-04-12T02:58:33.696Z,8.62
2023-04-12T03:02:36.226Z,8.56
2023-04-12T03:06:52.360Z,8.56
2023-04-12T03:10:58.082Z,8.60
2023-04-12T03:15:01.816Z,8.67
2023-04-12T03:19:06.812Z,8.61
2023-04-12T03:23:09.349Z,8.63
2023-04-12T03:27:15.342Z,8.54
2023-04-12T03:31:21.099Z,8.58
2023-04-12T03:35:23.473Z,8.68
2023-04-12T03:39:27.125Z,8.61
2023-04-12T03:43:35.778Z,8.58
2023-04-12T03:47:40.735Z,8.64
2023-04-12T03:51:43.891Z,8.62
2023-04-12T03:55:46.188Z,8.58
2023-04-12T03:59:48.173Z,8.55
2023-04-12T04:03:54.252Z,8.66
2023-04-12T04:08:02.319Z,8.66
2023-04-12T04:12:09.894Z,8.68
2023-04-12T04:16:15.358Z,8.61
2023-04-12T04:20:18.827Z,8.69
2023-04-12T04:24:25.254Z,8.71
2023-04-12T04:28:30.578Z,8.77
2023-04-12T04:32:34.065Z,8.79
2023-04-12T04:36:38.188Z,8.78
2023-04-12T04:40:41.296Z,8.80
2023-04-12T04:44:45.095Z,8.83
2023-04-12T04:48:49.158Z,8.84
2023-04-12T04:52:51.265Z,8.80
2023-04-12T04:56:53.998Z,8.94
2023-04-12T05:00:57.662Z,8.93
2023-04-12T05:05:02.428Z,9.08
2023-04-12T05:09:08.089Z,9.16
2023-04-12T05:13:15.369Z,9.16
2023-04-12T05:17:17.365Z,9.24
2023-04-12T05:21:19.880Z,9.29
2023-04-12T05:25:22.563Z,9.30
2023-04-12T05:29:34.414Z,9.46
2023-04-12T05:33:37.448Z,9.47
2023-04-12T05:37:39.556Z,9.67
2023-04-12T05:41:41.596Z,9.47
2023-04-12T05:45:43.764Z,9.44
2023-04-12T05:49:46.052Z,9.56
2023-04-12T05:53:48.080Z,9.81
2023-04-12T05:57:51.493Z,9.91
2023-04-12T06:01:56.176Z,9.87
2023-04-12T06:05:59.303Z,9.67
2023-04-12T06:10:01.462Z,9.87
2023-04-12T06:14:03.545Z,9.92
2023-04-12T06:18:07.578Z,9.89
2023-04-12T06:22:09.734Z,9.87
2023-04-12T06:26:13.456Z,10.00
2023-04-12T06:30:15.877Z,10.00
2023-04-12T06:34:18.108Z,10.02
2023-04-12T06:38:20.846Z,10.11
2023-04-12T06:42:22.941Z,10.34
2023-04-12T06:46:28.901Z,10.42
2023-04-12T06:50:30.974Z,10.52
2023-04-12T06:54:36.309Z,10.47
2023-04-12T06:58:38.451Z,10.55
2023-04-12T07:02:40.799Z,10.73
2023-04-12T07:06:42.955Z,10.86
2023-04-12T07:10:44.996Z,10.97
2023-04-12T07:14:46.986Z,10.81
2023-04-12T07:18:49.103Z,10.98
2023-04-12T07:22:51.467Z,10.91
2023-04-12T07:26:54.896Z,10.81
2023-04-12T07:30:57.074Z,11.03
2023-04-12T07:34:59.293Z,11.12
2023-04-12T07:39:01.349Z,11.04
2023-04-12T07:43:03.399Z,10.95
2023-04-12T07:47:05.591Z,10.91
2023-04-12T07:51:07.572Z,10.78
2023-04-12T07:55:10.177Z,10.69
2023-04-12T07:59:12.492Z,10.93
2023-04-12T08:03:17.027Z,10.85
2023-04-12T08:07:19.950Z,11.11
2023-04-12T08:11:22.230Z,11.13
2023-04-12T08:15:24.548Z,11.46
2023-04-12T08:19:27.531Z,11.31
2023-04-12T08:23:29.998Z,11.25
2023-04-12T08:27:31.578Z,10.94
2023-04-12T08:31:34.289Z,10.78
2023-04-12T08:35:36.405Z,10.87
2023-04-12T08:39:38.366Z,10.53
2023-04-12T08:43:44.445Z,10.89
2023-04-12T08:47:46.808Z,11.25
2023-04-12T08:51:49.413Z,11.58
2023-04-12T08:55:51.968Z,11.72
2023-04-12T08:59:54.934Z,11.90
2023-04-12T09:03:57.539Z,11.52
2023-04-12T09:08:00.160Z,11.52
2023-04-12T09:12:10.518Z,11.74
2023-04-12T09:16:12.698Z,12.26
2023-04-12T09:20:18.095Z,12.29
2023-04-12T09:24:24.059Z,12.49
2023-04-12T09:28:28.020Z,12.62
2023-04-12T09:32:30.241Z,13.25
2023-04-12T09:36:38.590Z,13.52
2023-04-12T09:40:40.673Z,13.46
2023-04-12T09:44:42.837Z,13.46
2023-04-12T09:48:52.895Z,13.28
2023-04-12T09:52:57.342Z,12.45
2023-04-12T09:57:01.080Z,12.52
2023-04-12T10:01:04.872Z,12.68
2023-04-12T10:05:07.505Z,12.52
2023-04-12T10:09:10.271Z,12.76
2023-04-12T10:13:13.834Z,12.36
2023-04-12T10:17:19.065Z,12.32
2023-04-12T10:21:22.802Z,12.57
2023-04-12T10:25:27.231Z,12.16
2023-04-12T10:29:30.297Z,12.12
2023-04-12T10:33:32.603Z,12.63
2023-04-12T10:38:06.075Z,13.07
2023-04-12T10:42:17.206Z,12.92
2023-04-12T10:46:39.083Z,13.08
2023-04-12T10:50:42.171Z,13.44
2023-04-12T10:54:44.660Z,13.78
2023-04-12T10:58:48.925Z,13.54
2023-04-12T11:03:07.849Z,13.55
2023-04-12T11:07:11.959Z,13.42
2023-04-12T11:11:20.362Z,13.18
2023-04-12T11:15:27.058Z,13.22
2023-04-12T11:19:57.865Z,13.22
2023-04-12T11:24:00.356Z,13.16
2023-04-12T11:28:04.140Z,12.85
2023-04-12T11:32:14.189Z,13.09
2023-04-12T11:36:17.694Z,13.42
2023-04-12T11:40:22.672Z,13.09
2023-04-12T11:44:25.289Z,13.02
2023-04-12T11:48:28.651Z,12.95
2023-04-12T11:52:32.759Z,13.43
2023-04-12T11:56:34.820Z,13.87
2023-04-12T12:00:37.542Z,13.74
2023-04-12T12:04:48.928Z,13.69
2023-04-12T12:08:52.319Z,14.09
2023-04-12T12:12:58.036Z,14.21
2023-04-12T12:17:00.604Z,14.36
2023-04-12T12:21:02.894Z,14.10
2023-04-12T12:25:06.095Z,14.27
2023-04-12T12:29:16.596Z,14.66
2023-04-12T12:33:26.832Z,15.07
2023-04-12T12:37:37.623Z,14.98
2023-04-12T12:41:41.061Z,14.81
2023-04-12T12:45:43.654Z,14.58
2023-04-12T12:49:45.993Z,14.86
2023-04-12T12:53:48.598Z,14.69
2023-04-12T12:58:07.553Z,15.04
2023-04-12T13:02:10.693Z,14.71
2023-04-12T13:06:13.093Z,15.15
2023-04-12T13:10:15.308Z,15.02
2023-04-12T13:14:17.228Z,15.16
2023-04-12T13:18:20.131Z,15.42
2023-04-12T13:22:22.611Z,15.07
2023-04-12T13:26:25.781Z,14.92
2023-04-12T13:30:28.283Z,14.68
2023-04-12T13:34:31.526Z,14.71
2023-04-12T13:38:33.613Z,14.59
2023-04-12T13:42:35.892Z,14.82
2023-04-12T13:46:38.008Z,14.41
2023-04-12T13:50:40.167Z,14.80
2023-04-12T13:54:43.438Z,15.05
2023-04-12T13:58:45.774Z,15.20
2023-04-12T14:02:48.077Z,15.44
2023-04-12T14:06:50.119Z,15.56
2023-04-12T14:10:52.572Z,15.65
2023-04-12T14:14:54.806Z,15.68
2023-04-12T14:18:57.149Z,15.87
2023-04-12T14:22:59.428Z,16.01
2023-04-12T14:27:02.464Z,16.11
2023-04-12T14:31:06.566Z,16.10
2023-04-12T14:35:09.752Z,16.32
2023-04-12T14:39:13.903Z,15.97
2023-04-12T14:43:17.071Z,15.15
2023-04-12T14:47:19.340Z,14.48
2023-04-12T14:51:21.842Z,14.43
2023-04-12T14:55:24.200Z,13.97
2023-04-12T14:59:27.508Z,14.03
2023-04-12T15:03:31.577Z,13.78
2023-04-12T15:07:35.093Z,13.88
2023-04-12T15:11:38.214Z,13.88
2023-04-12T15:15:41.794Z,13.93
2023-04-12T15:19:44.146Z,13.99
2023-04-12T15:23:47.452Z,14.09
2023-04-12T15:27:49.586Z,14.08
2023-04-12T15:31:51.801Z,14.42
2023-04-12T15:35:56.603Z,14.22
2023-04-12T15:39:58.726Z,13.90
2023-04-12T15:44:01.267Z,13.50
2023-04-12T15:48:03.676Z,13.35
2023-04-12T15:52:05.928Z,13.26
2023-04-12T15:56:09.254Z,13.70
2023-04-12T16:00:30.789Z,15.75
2023-04-12T16:04:33.578Z,16.05
2023-04-12T16:08:36.164Z,16.28
2023-04-12T16:12:38.386Z,15.63
2023-04-12T16:16:40.688Z,15.26
2023-04-12T16:20:43.032Z,14.65
2023-04-12T16:24:45.205Z,14.25
2023-04-12T16:28:51.816Z,14.16
2023-04-12T16:32:54.730Z,13.95
2023-04-12T16:36:57.609Z,13.56
2023-04-12T16:41:00.148Z,13.53
2023-04-12T16:45:04.526Z,13.41
2023-04-12T16:49:06.771Z,13.27
2023-04-12T16:53:09.044Z,13.16
2023-04-12T16:57:11.803Z,13.10
2023-04-12T17:01:17.256Z,12.95
2023-04-12T17:05:21.900Z,12.75
2023-04-12T17:09:24.084Z,12.59
2023-04-12T17:13:26.762Z,12.49
2023-04-12T17:17:28.886Z,12.43
2023-04-12T17:21:40.849Z,12.34
2023-04-12T17:25:43.370Z,12.25
2023-04-12T17:29:45.525Z,12.10
2023-04-12T17:33:48.087Z,12.16
2023-04-12T17:37:51.365Z,11.97
2023-04-12T17:41:53.697Z,11.94
2023-04-12T17:45:56.020Z,11.90
2023-04-12T17:49:58.173Z,11.82
2023-04-12T17:54:00.841Z,11.81
2023-04-12T17:58:03.480Z,11.74
2023-04-12T18:02:06.087Z,11.66
2023-04-12T18:06:08.647Z,11.54
2023-04-12T18:10:15.397Z,11.52
2023-04-12T18:14:17.800Z,11.43
2023-04-12T18:18:20.320Z,11.40
2023-04-12T18:22:22.820Z,11.41
2023-04-12T18:26:25.138Z,11.31
2023-04-12T18:30:27.645Z,11.26
2023-04-12T18:34:31.065Z,11.18
2023-04-12T18:38:35.703Z,11.18
2023-04-12T18:42:38.040Z,11.05
2023-04-12T18:46:41.053Z,11.02
2023-04-12T18:50:44.633Z,11.10
2023-04-12T18:54:48.193Z,10.96
2023-04-12T18:58:55.695Z,10.81
2023-04-12T19:02:58.469Z,10.80
2023-04-12T19:07:00.511Z,10.70
2023-04-12T19:11:02.779Z,10.69
2023-04-12T19:15:07.147Z,10.65
2023-04-12T19:19:09.536Z,10.72
2023-04-12T19:23:11.706Z,10.66
2023-04-12T19:27:14.330Z,10.53
2023-04-12T19:31:16.498Z,10.44
2023-04-12T19:35:19.077Z,10.35
2023-04-12T19:39:22.779Z,10.28
2023-04-12T19:43:25.841Z,10.18
2023-04-12T19:47:27.976Z,10.00
2023-04-12T19:51:31.386Z,9.88
2023-04-12T19:55:33.509Z,9.70
2023-04-12T19:59:36.754Z,9.43
2023-04-12T20:03:40.558Z,9.33
2023-04-12T20:07:45.895Z,9.21
2023-04-12T20:11:48.246Z,9.15
2023-04-12T20:15:51.093Z,9.10
2023-04-12T20:19:55.331Z,8.96
2023-04-12T20:23:59.168Z,8.93
2023-04-12T20:28:02.745Z,9.00
2023-04-12T20:32:05.015Z,8.92
2023-04-12T20:36:07.416Z,8.93
2023-04-12T20:40:10.068Z,8.73
2023-04-12T20:44:12.335Z,8.46
2023-04-12T20:48:14.428Z,8.28
2023-04-12T20:52:18.492Z,7.95
2023-04-12T20:56:20.488Z,7.76
2023-04-12T21:00:23.539Z,7.59
2023-04-12T21:04:27.845Z,7.58
2023-04-12T21:08:33.741Z,7.22
2023-04-12T21:12:35.742Z,7.29
2023-04-12T21:16:38.703Z,6.98
2023-04-12T21:20:41.032Z,7.06
2023-04-12T21:24:43.308Z,6.84
2023-04-12T21:28:46.097Z,6.70
2023-04-12T21:32:48.248Z,6.58
2023-04-12T21:36:50.850Z,6.71
2023-04-12T21:40:57.195Z,6.44
2023-04-12T21:44:59.152Z,6.42
2023-04-12T21:49:01.204Z,6.22
2023-04-12T21:53:03.395Z,6.04
2023-04-12T21:57:06.153Z,6.27
2023-04-12T22:01:09.426Z,6.22
2023-04-12T22:05:11.794Z,6.18
2023-04-12T22:09:13.570Z,6.06
2023-04-12T22:13:16.020Z,6.01
2023-04-12T22:17:19.320Z,5.75
2023-04-12T22:21:22.833Z,5.72
2023-04-12T22:25:24.924Z,5.83
2023-04-12T22:29:26.940Z,5.86
2023-04-12T22:33:29.938Z,5.80
2023-04-12T22:37:33.485Z,5.68
2023-04-12T22:41:35.531Z,5.55
2023-04-12T22:45:39.401Z,5.47
2023-04-12T22:49:46.311Z,5.38
2023-04-12T22:53:50.279Z,5.28
2023-04-12T22:57:53.123Z,5.28
2023-04-12T23:01:55.182Z,5.26
2023-04-12T23:05:57.344Z,5.13
2023-04-12T23:09:59.409Z,5.11
2023-04-12T23:14:02.501Z,5.02
2023-04-12T23:18:04.618Z,4.99
2023-04-12T23:22:06.671Z,4.90
2023-04-12T23:26:10.785Z,4.90
2023-04-12T23:30:14.597Z,4.85
2023-04-12T23:34:18.840Z,4.62
2023-04-12T23:38:25.954Z,4.61
2023-04-12T23:42:28.573Z,4.51
2023-04-12T23:46:30.790Z,4.46
2023-04-12T23:50:32.848Z,4.46
2023-04-12T23:54:34.539Z,4.31
2023-04-12T23:58:37.917Z,4.34
